createdAt,value
2023-03-06T00:00:26.675Z,25.00
2023-03-06T00:02:53.960Z,23.83
2023-03-06T00:05:20.539Z,22.88
2023-03-06T00:07:47.201Z,22.83
2023-03-06T00:10:20.212Z,24.43
2023-03-06T00:12:46.947Z,23.50
2023-03-06T00:15:14.449Z,26.83
2023-03-06T00:17:41.455Z,24.73
2023-03-06T00:20:10.146Z,24.00
2023-03-06T00:22:36.686Z,24.20
2023-03-06T00:25:03.878Z,22.20
2023-03-06T00:27:31.437Z,25.65
2023-03-06T00:29:59.594Z,26.85
2023-03-06T00:32:28.245Z,23.15
2023-03-06T00:34:55.962Z,26.93
2023-03-06T00:37:24.782Z,25.48
2023-03-06T00:39:51.474Z,22.70
2023-03-06T00:42:19.253Z,23.38
2023-03-06T00:44:46.669Z,26.52
2023-03-06T00:47:13.673Z,24.33
2023-03-06T00:49:40.184Z,24.92
2023-03-06T00:52:06.672Z,24.20
2023-03-06T00:54:33.190Z,26.27
2023-03-06T00:56:59.798Z,24.60
2023-03-06T00:59:27.645Z,33.80
2023-03-06T01:01:54.802Z,26.17
2023-03-06T01:04:21.764Z,25.23
2023-03-06T01:06:48.624Z,21.27
2023-03-06T01:09:15.327Z,23.73
2023-03-06T01:11:41.828Z,27.27
2023-03-06T01:14:08.463Z,27.67
2023-03-06T01:16:35.402Z,24.63
2023-03-06T01:19:01.931Z,23.38
2023-03-06T01:21:28.737Z,26.67
2023-03-06T01:23:55.616Z,27.07
2023-03-06T01:26:22.138Z,24.80
2023-03-06T01:28:48.916Z,24.33
2023-03-06T01:31:15.545Z,23.67
2023-03-06T01:33:42.084Z,23.30
2023-03-06T01:36:11.986Z,28.53
2023-03-06T01:38:38.675Z,26.75
2023-03-06T01:41:05.753Z,27.05
2023-03-06T01:43:38.074Z,26.40
2023-03-06T01:46:16.925Z,24.27
2023-03-06T01:48:45.213Z,24.77
2023-03-06T01:51:12.424Z,25.95
2023-03-06T01:53:41.111Z,22.83
2023-03-06T01:56:07.921Z,26.52
2023-03-06T01:58:34.594Z,27.95
2023-03-06T02:01:01.154Z,26.10
2023-03-06T02:03:29.115Z,25.83
2023-03-06T02:05:56.051Z,31.75
2023-03-06T02:08:25.211Z,23.33
2023-03-06T02:11:16.703Z,28.05
2023-03-06T02:13:45.088Z,25.83
2023-03-06T02:16:13.730Z,27.70
2023-03-06T02:18:42.249Z,25.55
2023-03-06T02:21:12.191Z,26.65
2023-03-06T02:24:16.031Z,25.55
2023-03-06T02:26:44.865Z,24.73
2023-03-06T02:29:11.936Z,22.63
2023-03-06T02:31:38.461Z,26.13
2023-03-06T02:34:28.170Z,26.65
2023-03-06T02:37:05.270Z,26.17
2023-03-06T02:39:34.101Z,25.00
2023-03-06T02:42:00.750Z,25.80
2023-03-06T02:44:28.648Z,25.20
2023-03-06T02:46:55.129Z,25.10
2023-03-06T02:49:21.670Z,27.15
2023-03-06T02:51:48.273Z,27.30
2023-03-06T02:54:14.824Z,25.88
2023-03-06T02:56:41.288Z,29.45
2023-03-06T02:59:07.789Z,28.48
2023-03-06T03:01:34.394Z,27.70
2023-03-06T03:04:01.072Z,27.77
2023-03-06T03:06:27.559Z,25.08
2023-03-06T03:08:54.102Z,25.45
2023-03-06T03:11:23.532Z,23.58
2023-03-06T03:13:49.980Z,28.67
2023-03-06T03:16:16.571Z,29.00
2023-03-06T03:18:44.714Z,28.85
2023-03-06T03:21:13.212Z,26.30
2023-03-06T03:23:39.957Z,30.52
2023-03-06T03:26:12.700Z,29.27
2023-03-06T03:28:39.428Z,28.43
2023-03-06T03:31:08.752Z,27.92
2023-03-06T03:33:35.620Z,27.55
2023-03-06T03:36:03.739Z,25.50
2023-03-06T03:38:30.746Z,28.83
2023-03-06T03:40:57.264Z,29.20
2023-03-06T03:43:23.767Z,29.13
2023-03-06T03:45:50.327Z,27.05
2023-03-06T03:48:16.808Z,28.35
2023-03-06T03:50:43.330Z,26.02
2023-03-06T03:53:09.926Z,29.37
2023-03-06T03:55:36.700Z,26.48
2023-03-06T03:58:04.746Z,27.42
2023-03-06T04:00:31.513Z,25.95
2023-03-06T04:02:57.998Z,28.52
2023-03-06T04:05:24.474Z,28.37
2023-03-06T04:07:51.005Z,25.40
2023-03-06T04:10:17.660Z,26.95
2023-03-06T04:12:44.331Z,27.42
2023-03-06T04:15:11.273Z,25.40
2023-03-06T04:17:38.154Z,25.13
2023-03-06T04:20:05.146Z,25.35
2023-03-06T04:22:31.593Z,25.77
2023-03-06T04:24:58.077Z,25.05
2023-03-06T04:27:24.737Z,26.10
2023-03-06T04:29:51.232Z,25.03
2023-03-06T04:32:20.312Z,30.75
2023-03-06T04:34:47.792Z,27.88
2023-03-06T04:37:20.880Z,28.75
2023-03-06T04:39:48.281Z,33.67
2023-03-06T04:42:15.052Z,28.50
2023-03-06T04:44:41.569Z,28.65
2023-03-06T04:47:08.089Z,27.73
2023-03-06T04:49:34.754Z,28.00
2023-03-06T04:52:01.463Z,27.63
2023-03-06T04:54:27.913Z,30.30
2023-03-06T04:56:54.421Z,30.70
2023-03-06T04:59:21.152Z,27.77
2023-03-06T05:01:47.823Z,27.80
2023-03-06T05:04:14.403Z,29.70
2023-03-06T05:06:41.011Z,30.13
2023-03-06T05:09:07.975Z,30.73
2023-03-06T05:11:34.439Z,30.23
2023-03-06T05:14:00.868Z,29.65
2023-03-06T05:16:27.399Z,31.15
2023-03-06T05:18:53.897Z,29.63
2023-03-06T05:21:20.432Z,29.60
2023-03-06T05:23:47.606Z,34.63
2023-03-06T05:26:15.317Z,41.67
2023-03-06T05:28:42.073Z,43.05
2023-03-06T05:31:08.951Z,37.27
2023-03-06T05:33:36.555Z,40.42
2023-03-06T05:36:03.688Z,35.78
2023-03-06T05:38:30.258Z,37.47
2023-03-06T05:40:59.331Z,37.08
2023-03-06T05:43:25.880Z,34.50
2023-03-06T05:46:00.552Z,34.78
2023-03-06T05:48:27.167Z,35.08
2023-03-06T05:51:01.110Z,31.23
2023-03-06T05:53:29.341Z,28.25
2023-03-06T05:55:57.682Z,33.93
2023-03-06T05:58:26.644Z,30.25
2023-03-06T06:00:53.328Z,31.77
2023-03-06T06:03:20.470Z,37.75
2023-03-06T06:05:47.221Z,47.42
2023-03-06T06:08:13.772Z,40.10
2023-03-06T06:10:40.365Z,37.65
2023-03-06T06:13:07.197Z,40.13
2023-03-06T06:15:34.088Z,47.10
2023-03-06T06:18:00.950Z,40.88
2023-03-06T06:20:28.650Z,39.23
2023-03-06T06:22:55.499Z,34.08
2023-03-06T06:25:22.400Z,38.90
2023-03-06T06:27:48.982Z,33.17
2023-03-06T06:30:15.676Z,34.83
2023-03-06T06:32:42.331Z,35.70
2023-03-06T06:35:11.816Z,33.53
2023-03-06T06:37:38.321Z,33.85
2023-03-06T06:40:05.343Z,33.75
2023-03-06T06:42:38.913Z,31.80
2023-03-06T06:45:07.187Z,29.43
2023-03-06T06:47:34.506Z,31.10
2023-03-06T06:50:01.087Z,36.03
2023-03-06T06:52:31.000Z,33.15
2023-03-06T06:54:57.764Z,34.50
2023-03-06T06:57:24.263Z,31.23
2023-03-06T06:59:53.332Z,32.13
2023-03-06T07:02:20.517Z,35.80
2023-03-06T07:05:02.583Z,34.92
2023-03-06T07:07:33.359Z,31.17
2023-03-06T07:09:59.851Z,32.03
2023-03-06T07:12:26.420Z,34.60
2023-03-06T07:14:52.962Z,33.97
2023-03-06T07:17:19.484Z,37.45
2023-03-06T07:19:46.053Z,36.88
2023-03-06T07:22:13.113Z,35.73
2023-03-06T07:24:39.844Z,32.05
2023-03-06T07:27:06.352Z,34.60
2023-03-06T07:29:34.616Z,34.97
2023-03-06T07:32:02.968Z,30.48
2023-03-06T07:34:29.937Z,31.20
2023-03-06T07:36:56.478Z,30.70
2023-03-06T07:39:23.265Z,32.67
2023-03-06T07:41:49.808Z,35.88
2023-03-06T07:44:17.428Z,37.80
2023-03-06T07:46:44.053Z,33.63
2023-03-06T07:49:10.782Z,32.22
2023-03-06T07:51:37.233Z,30.58
2023-03-06T07:54:04.015Z,31.92
2023-03-06T07:56:30.830Z,32.63
2023-03-06T07:58:57.338Z,31.37
2023-03-06T08:01:24.355Z,31.15
2023-03-06T08:03:51.229Z,31.13
2023-03-06T08:06:22.222Z,29.27
2023-03-06T08:08:50.690Z,30.60
2023-03-06T08:11:20.125Z,30.67
2023-03-06T08:13:48.839Z,32.55
2023-03-06T08:16:17.476Z,33.38
2023-03-06T08:18:46.257Z,34.55
2023-03-06T08:21:20.381Z,32.97
2023-03-06T08:23:48.039Z,31.87
2023-03-06T08:26:18.031Z,31.13
2023-03-06T08:28:45.128Z,32.17
2023-03-06T08:31:35.891Z,30.45
2023-03-06T08:34:04.922Z,31.85
2023-03-06T08:36:31.811Z,33.77
2023-03-06T08:38:58.582Z,30.85
2023-03-06T08:41:25.870Z,33.33
2023-03-06T08:43:53.559Z,31.50
2023-03-06T08:46:22.532Z,35.03
2023-03-06T08:48:49.078Z,32.97
2023-03-06T08:51:16.245Z,31.30
2023-03-06T08:53:44.129Z,35.42
2023-03-06T08:56:25.466Z,37.28
2023-03-06T08:58:52.948Z,31.77
2023-03-06T09:01:31.197Z,38.00
2023-03-06T09:04:00.832Z,29.38
2023-03-06T09:06:31.378Z,33.22
2023-03-06T09:08:57.986Z,35.28
2023-03-06T09:11:25.915Z,34.20
2023-03-06T09:13:53.336Z,32.37
2023-03-06T09:16:20.222Z,32.28
2023-03-06T09:18:47.062Z,30.17
2023-03-06T09:21:13.914Z,28.85
2023-03-06T09:23:40.760Z,29.05
2023-03-06T09:26:08.408Z,30.50
2023-03-06T09:28:36.354Z,33.45
2023-03-06T09:31:07.920Z,32.22
2023-03-06T09:33:34.642Z,27.38
2023-03-06T09:36:02.447Z,30.42
2023-03-06T09:38:31.082Z,29.67
2023-03-06T09:40:57.522Z,26.38
2023-03-06T09:43:40.525Z,25.05
2023-03-06T09:46:38.122Z,27.48
2023-03-06T09:49:15.504Z,22.35
2023-03-06T09:52:20.699Z,23.67
2023-03-06T09:54:57.132Z,24.17
2023-03-06T09:57:30.973Z,23.73
2023-03-06T10:00:12.870Z,20.45
2023-03-06T10:02:46.274Z,27.35
2023-03-06T10:05:29.002Z,22.47
2023-03-06T10:08:03.386Z,20.75
2023-03-06T10:10:44.624Z,24.30
2023-03-06T10:13:36.318Z,21.95
2023-03-06T10:16:21.436Z,21.08
2023-03-06T10:18:48.106Z,18.67
2023-03-06T10:21:29.887Z,20.85
2023-03-06T10:24:21.358Z,17.90
2023-03-06T10:26:58.379Z,19.30
2023-03-06T10:30:16.138Z,19.17
2023-03-06T10:32:49.596Z,17.17
2023-03-06T10:35:21.673Z,17.27
2023-03-06T10:37:49.373Z,19.10
2023-03-06T10:40:21.549Z,17.08
2023-03-06T10:42:52.067Z,20.88
2023-03-06T10:45:22.667Z,12.30
2023-03-06T10:47:49.088Z,13.02
2023-03-06T10:50:27.494Z,13.60
2023-03-06T10:53:19.386Z,16.05
2023-03-06T10:55:52.624Z,14.77
2023-03-06T10:58:30.041Z,15.63
2023-03-06T11:01:11.776Z,16.40
2023-03-06T11:03:38.380Z,19.30
2023-03-06T11:06:12.552Z,21.27
2023-03-06T11:08:41.093Z,18.92
2023-03-06T11:11:14.487Z,16.00
2023-03-06T11:13:43.710Z,17.35
2023-03-06T11:16:27.393Z,17.08
2023-03-06T11:19:07.106Z,16.40
2023-03-06T11:21:36.323Z,18.15
2023-03-06T11:24:18.719Z,17.27
2023-03-06T11:26:53.213Z,19.77
2023-03-06T11:29:43.148Z,18.90
2023-03-06T11:32:21.493Z,18.88
2023-03-06T11:35:10.428Z,23.08
2023-03-06T11:37:54.067Z,23.67
2023-03-06T11:40:51.395Z,23.42
2023-03-06T11:43:32.523Z,21.73
2023-03-06T11:46:21.500Z,20.05
2023-03-06T11:48:56.422Z,22.40
2023-03-06T11:51:30.413Z,22.53
2023-03-06T11:53:59.761Z,24.30
2023-03-06T11:56:53.259Z,20.10
2023-03-06T11:59:38.683Z,17.85
2023-03-06T12:02:20.534Z,20.45
2023-03-06T12:05:05.688Z,18.10
2023-03-06T12:07:35.833Z,18.38
2023-03-06T12:10:27.847Z,19.75
2023-03-06T12:17:04.112Z,18.38
2023-03-06T12:19:50.165Z,19.03
2023-03-06T12:22:40.298Z,17.88
2023-03-06T12:25:20.727Z,17.65
2023-03-06T12:28:11.905Z,18.63
2023-03-06T12:31:06.023Z,15.80
2023-03-06T12:33:47.765Z,16.83
2023-03-06T12:36:51.341Z,17.88
2023-03-06T12:39:40.164Z,18.83
2023-03-06T12:42:29.938Z,16.60
2023-03-06T12:45:17.432Z,18.40
2023-03-06T12:47:47.337Z,17.20
2023-03-06T12:50:22.414Z,16.75
2023-03-06T12:52:49.817Z,14.20
2023-03-06T12:55:22.114Z,15.60
2023-03-06T12:57:50.776Z,15.60
2023-03-06T13:00:32.521Z,12.67
2023-03-06T13:03:11.293Z,15.25
2023-03-06T13:05:56.699Z,14.82
2023-03-06T13:08:57.726Z,16.48
2023-03-06T13:11:45.892Z,13.00
2023-03-06T13:14:42.266Z,15.13
2023-03-06T13:17:20.996Z,14.20
2023-03-06T13:19:48.657Z,14.13
2023-03-06T13:22:27.821Z,11.55
2023-03-06T13:25:19.027Z,10.57
2023-03-06T13:27:54.630Z,12.43
2023-03-06T13:30:28.032Z,11.30
2023-03-06T13:32:56.215Z,10.27
2023-03-06T13:35:35.933Z,10.05
2023-03-06T13:38:02.437Z,12.10
2023-03-06T13:40:32.319Z,10.17
2023-03-06T13:43:08.036Z,12.05
2023-03-06T13:45:42.730Z,10.93
2023-03-06T13:48:43.529Z,12.20
2023-03-06T13:51:27.902Z,11.60
2023-03-06T13:54:12.603Z,9.90
2023-03-06T13:57:10.041Z,13.48
2023-03-06T14:00:03.172Z,10.68
2023-03-06T14:03:07.907Z,13.43
2023-03-06T14:05:46.045Z,12.48
2023-03-06T14:08:20.076Z,13.30
2023-03-06T14:10:49.157Z,11.10
2023-03-06T14:13:22.227Z,11.43
2023-03-06T14:15:51.595Z,10.20
2023-03-06T14:18:25.685Z,10.90
2023-03-06T14:21:04.465Z,8.57
2023-03-06T14:23:42.506Z,11.82
2023-03-06T14:26:19.228Z,9.45
2023-03-06T14:29:22.402Z,10.82
2023-03-06T14:31:51.492Z,11.05
2023-03-06T14:34:22.792Z,10.13
2023-03-06T14:36:51.806Z,11.15
2023-03-06T14:39:24.525Z,13.85
2023-03-06T14:41:51.146Z,10.93
2023-03-06T14:44:21.852Z,12.05
2023-03-06T14:46:56.690Z,11.27
2023-03-06T14:49:25.800Z,10.85
2023-03-06T14:51:55.281Z,10.20
2023-03-06T14:54:27.867Z,9.90
2023-03-06T14:57:01.871Z,9.90
2023-03-06T14:59:33.041Z,11.00
2023-03-06T15:02:02.647Z,11.32
2023-03-06T15:04:41.955Z,11.65
2023-03-06T15:07:13.435Z,10.90
2023-03-06T15:09:46.927Z,10.32
2023-03-06T15:12:23.403Z,13.20
2023-03-06T15:15:08.436Z,9.90
2023-03-06T15:17:39.970Z,10.65
2023-03-06T15:20:11.476Z,9.75
2023-03-06T15:22:40.447Z,10.18
2023-03-06T15:25:21.277Z,10.00
2023-03-06T15:27:51.030Z,9.98
2023-03-06T15:30:25.192Z,9.88
2023-03-06T15:32:52.213Z,9.75
2023-03-06T15:35:36.604Z,10.93
2023-03-06T15:38:23.131Z,10.20
2023-03-06T15:41:01.042Z,9.80
2023-03-06T15:43:31.579Z,9.23
2023-03-06T15:46:00.688Z,12.95
2023-03-06T15:48:28.364Z,11.95
2023-03-06T15:50:54.923Z,13.07
2023-03-06T15:53:21.522Z,11.88
2023-03-06T15:55:48.284Z,14.32
2023-03-06T15:58:19.808Z,11.20
2023-03-06T16:00:46.315Z,9.95
2023-03-06T16:03:12.809Z,11.57
2023-03-06T16:05:39.288Z,10.15
2023-03-06T16:08:11.003Z,12.18
2023-03-06T16:10:40.623Z,14.68
2023-03-06T16:13:12.668Z,18.83
2023-03-06T16:15:45.044Z,15.23
2023-03-06T16:18:13.038Z,12.98
2023-03-06T16:20:40.248Z,12.43
2023-03-06T16:23:10.486Z,12.10
2023-03-06T16:25:43.100Z,14.15
2023-03-06T16:28:15.398Z,15.70
2023-03-06T16:30:44.365Z,13.70
2023-03-06T16:33:12.348Z,17.30
2023-03-06T16:35:39.285Z,15.90
2023-03-06T16:38:05.883Z,15.77
2023-03-06T16:40:41.053Z,13.27
2023-03-06T16:43:09.171Z,15.15
2023-03-06T16:45:38.197Z,20.50
2023-03-06T16:48:05.193Z,15.95
2023-03-06T16:50:36.123Z,14.95
2023-03-06T16:53:02.603Z,13.50
2023-03-06T16:55:29.039Z,14.20
2023-03-06T16:57:55.832Z,15.48
2023-03-06T17:00:24.829Z,18.70
2023-03-06T17:02:52.409Z,16.15
2023-03-06T17:05:20.270Z,17.90
2023-03-06T17:07:47.310Z,17.75
2023-03-06T17:10:16.119Z,18.38
2023-03-06T17:12:43.746Z,16.20
2023-03-06T17:15:11.977Z,16.48
2023-03-06T17:17:38.776Z,14.73
2023-03-06T17:20:08.115Z,16.42
2023-03-06T17:22:36.313Z,16.77
2023-03-06T17:25:05.379Z,17.80
2023-03-06T17:27:31.851Z,17.13
2023-03-06T17:29:58.851Z,13.67
2023-03-06T17:32:26.501Z,17.52
2023-03-06T17:34:56.603Z,19.50
2023-03-06T17:37:23.205Z,16.85
2023-03-06T17:39:50.170Z,16.08
2023-03-06T17:42:16.923Z,16.37
2023-03-06T17:44:43.439Z,16.77
2023-03-06T17:47:10.210Z,16.55
2023-03-06T17:49:37.503Z,18.95
2023-03-06T17:52:05.830Z,23.25
2023-03-06T17:54:33.290Z,15.63
2023-03-06T17:57:02.877Z,15.75
2023-03-06T17:59:30.580Z,16.67
2023-03-06T18:01:58.525Z,15.40
2023-03-06T18:04:25.617Z,18.08
2023-03-06T18:06:52.244Z,17.67
2023-03-06T18:09:19.257Z,16.80
2023-03-06T18:11:46.018Z,16.45
2023-03-06T18:14:12.521Z,15.65
2023-03-06T18:16:39.123Z,13.77
2023-03-06T18:19:05.791Z,18.50
2023-03-06T18:21:32.328Z,18.67
2023-03-06T18:23:58.846Z,16.98
2023-03-06T18:26:28.041Z,14.57
2023-03-06T18:29:04.451Z,16.80
2023-03-06T18:31:34.918Z,17.10
2023-03-06T18:34:08.106Z,16.38
2023-03-06T18:36:35.763Z,16.98
2023-03-06T18:39:03.873Z,20.17
2023-03-06T18:41:30.829Z,20.25
2023-03-06T18:43:59.408Z,18.30
2023-03-06T18:46:29.139Z,17.67
2023-03-06T18:48:55.640Z,17.67
2023-03-06T18:51:22.191Z,16.83
2023-03-06T18:53:48.680Z,16.23
2023-03-06T18:56:20.827Z,15.87
2023-03-06T18:58:48.364Z,15.80
2023-03-06T19:01:15.074Z,14.07
2023-03-06T19:03:41.859Z,15.38
2023-03-06T19:06:11.149Z,15.75
2023-03-06T19:08:38.606Z,14.60
2023-03-06T19:11:15.833Z,18.10
2023-03-06T19:13:42.860Z,18.83
2023-03-06T19:16:15.926Z,16.65
2023-03-06T19:18:42.449Z,20.27
2023-03-06T19:21:11.656Z,18.17
2023-03-06T19:23:39.537Z,24.40
2023-03-06T19:26:07.579Z,20.88
2023-03-06T19:28:36.329Z,16.02
2023-03-06T19:31:20.574Z,16.60
2023-03-06T19:33:48.778Z,17.37
2023-03-06T19:36:18.222Z,15.80
2023-03-06T19:38:45.022Z,17.35
2023-03-06T19:41:13.917Z,17.13
2023-03-06T19:43:41.830Z,16.23
2023-03-06T19:46:13.598Z,12.80
2023-03-06T19:48:43.640Z,14.70
2023-03-06T19:51:10.824Z,14.57
2023-03-06T19:53:39.657Z,16.48
2023-03-06T19:56:08.924Z,14.85
2023-03-06T19:58:35.874Z,15.10
2023-03-06T20:01:04.840Z,13.85
2023-03-06T20:03:31.341Z,15.15
2023-03-06T20:05:57.835Z,19.50
2023-03-06T20:08:24.373Z,23.58
2023-03-06T20:10:50.905Z,17.23
2023-03-06T20:13:17.457Z,15.95
2023-03-06T20:15:44.073Z,16.33
2023-03-06T20:18:10.773Z,15.48
2023-03-06T20:20:39.526Z,17.15
2023-03-06T20:23:06.588Z,15.73
2023-03-06T20:25:36.604Z,17.42
2023-03-06T20:28:03.861Z,15.15
2023-03-06T20:30:37.744Z,15.05
2023-03-06T20:33:05.341Z,17.75
2023-03-06T20:35:31.881Z,14.97
2023-03-06T20:37:59.899Z,14.88
2023-03-06T20:40:26.819Z,15.95
2023-03-06T20:42:53.917Z,16.63
2023-03-06T20:45:20.358Z,14.60
2023-03-06T20:47:47.405Z,15.90
2023-03-06T20:50:15.248Z,15.80
2023-03-06T20:52:41.721Z,18.95
2023-03-06T20:55:08.719Z,18.50
2023-03-06T20:57:35.201Z,18.40
2023-03-06T21:00:01.768Z,19.03
2023-03-06T21:02:28.174Z,18.23
2023-03-06T21:04:54.868Z,23.23
2023-03-06T21:07:21.514Z,18.13
2023-03-06T21:09:49.829Z,26.00
2023-03-06T21:12:16.479Z,46.73
2023-03-06T21:14:43.219Z,38.78
2023-03-06T21:17:09.699Z,35.92
2023-03-06T21:19:36.810Z,37.63
2023-03-06T21:22:03.687Z,33.28
2023-03-06T21:24:30.152Z,28.33
2023-03-06T21:26:56.589Z,24.38
2023-03-06T21:29:23.099Z,22.27
2023-03-06T21:31:49.579Z,23.05
2023-03-06T21:34:16.025Z,19.50
2023-03-06T21:36:43.587Z,17.77
2023-03-06T21:39:10.594Z,16.35
2023-03-06T21:41:38.236Z,17.55
2023-03-06T21:44:06.550Z,19.00
2023-03-06T21:46:33.965Z,15.90
2023-03-06T21:49:02.988Z,19.23
2023-03-06T21:51:29.509Z,18.02
2023-03-06T21:53:56.166Z,16.10
2023-03-06T21:56:25.431Z,16.67
2023-03-06T21:58:52.482Z,18.88
2023-03-06T22:01:25.294Z,17.17
2023-03-06T22:03:51.994Z,20.58
2023-03-06T22:06:25.044Z,16.30
2023-03-06T22:08:52.170Z,16.23
2023-03-06T22:11:20.520Z,16.48
2023-03-06T22:13:48.332Z,15.50
2023-03-06T22:16:15.811Z,16.63
2023-03-06T22:18:47.565Z,16.10
2023-03-06T22:21:16.373Z,14.70
2023-03-06T22:23:43.274Z,15.45
2023-03-06T22:26:13.636Z,18.33
2023-03-06T22:28:41.059Z,16.42
2023-03-06T22:31:13.819Z,16.27
2023-03-06T22:33:40.644Z,16.80
2023-03-06T22:36:10.209Z,15.48
2023-03-06T22:38:39.512Z,19.00
2023-03-06T22:41:06.944Z,15.20
2023-03-06T22:43:34.278Z,16.48
2023-03-06T22:46:02.705Z,16.87
2023-03-06T22:48:29.511Z,16.90
2023-03-06T22:50:55.999Z,19.27
2023-03-06T22:53:22.518Z,18.77
2023-03-06T22:55:48.985Z,16.23
2023-03-06T22:58:16.918Z,15.33
2023-03-06T23:00:43.402Z,17.08
2023-03-06T23:03:09.848Z,17.00
2023-03-06T23:05:40.768Z,15.45
2023-03-06T23:08:07.229Z,16.65
2023-03-06T23:10:40.217Z,20.13
2023-03-06T23:13:06.993Z,25.05
2023-03-06T23:15:36.404Z,20.00
2023-03-06T23:18:05.060Z,21.77
2023-03-06T23:20:31.565Z,17.63
2023-03-06T23:22:58.111Z,17.80
2023-03-06T23:25:24.635Z,17.20
2023-03-06T23:27:51.325Z,17.73
2023-03-06T23:30:17.937Z,17.83
2023-03-06T23:32:45.984Z,16.23
2023-03-06T23:35:12.678Z,16.27
2023-03-06T23:37:40.408Z,17.27
2023-03-06T23:40:09.321Z,16.42
2023-03-06T23:42:36.210Z,15.73
2023-03-06T23:45:02.809Z,17.02
2023-03-06T23:47:33.629Z,15.37
2023-03-06T23:50:00.178Z,14.50
2023-03-06T23:52:26.986Z,14.57
2023-03-06T23:54:53.448Z,16.73
2023-03-06T23:57:20.066Z,16.85
2023-03-06T23:59:46.875Z,16.97
